sensor_id;sensor_type;location;lat;lon;timestamp;temperature;humidity
12223;DHT22;6174;49.058;8.524;2022-10-16T05:11:11;15.70;99.90
12223;DHT22;6174;49.058;8.524;2022-10-16T05:13:38;15.80;99.90
12223;DHT22;6174;49.058;8.524;2022-10-16T05:16:05;15.80;99.90
12223;DHT22;6174;49.058;8.524;2022-10-16T05:18:32;15.90;99.90
12223;DHT22;6174;49.058;8.524;2022-10-16T05:20:58;15.90;99.90
12223;DHT22;6174;49.058;8.524;2022-10-16T05:23:25;15.80;99.90
12223;DHT22;6174;49.058;8.524;2022-10-16T05:36:13;15.80;99.90
12223;DHT22;6174;49.058;8.524;2022-10-16T05:38:39;15.80;99.90
12223;DHT22;6174;49.058;8.524;2022-10-16T05:41:06;15.80;99.90
12223;DHT22;6174;49.058;8.524;2022-10-16T05:43:33;15.80;99.90
12223;DHT22;6174;49.058;8.524;2022-10-16T05:46:03;15.80;99.90
12223;DHT22;6174;49.058;8.524;2022-10-16T05:48:32;15.70;99.90
12223;DHT22;6174;49.058;8.524;2022-10-16T05:50:59;15.70;99.90
12223;DHT22;6174;49.058;8.524;2022-10-16T05:53:30;15.60;99.90
12223;DHT22;6174;49.058;8.524;2022-10-16T05:55:57;15.60;99.90
12223;DHT22;6174;49.058;8.524;2022-10-16T05:58:24;15.50;99.90
12223;DHT22;6174;49.058;8.524;2022-10-16T06:00:55;15.60;99.90
12223;DHT22;6174;49.058;8.524;2022-10-16T06:03:22;15.80;99.90
12223;DHT22;6174;49.058;8.524;2022-10-16T06:05:49;15.90;99.90
12223;DHT22;6174;49.058;8.524;2022-10-16T06:08:16;15.90;99.90
12223;DHT22;6174;49.058;8.524;2022-10-16T06:10:44;15.90;99.90
12223;DHT22;6174;49.058;8.524;2022-10-16T06:13:11;15.80;99.90
12223;DHT22;6174;49.058;8.524;2022-10-16T06:15:38;15.70;99.90
12223;DHT22;6174;49.058;8.524;2022-10-16T06:18:07;15.60;99.90
12223;DHT22;6174;49.058;8.524;2022-10-16T06:20:34;15.60;99.90
12223;DHT22;6174;49.058;8.524;2022-10-16T06:23:01;15.60;99.90
12223;DHT22;6174;49.058;8.524;2022-10-16T06:25:29;15.60;99.90
12223;DHT22;6174;49.058;8.524;2022-10-16T06:27:57;15.90;99.90
12223;DHT22;6174;49.058;8.524;2022-10-16T06:30:24;15.90;99.90
12223;DHT22;6174;49.058;8.524;2022-10-16T06:32:51;15.90;99.90
12223;DHT22;6174;49.058;8.524;2022-10-16T06:35:17;15.90;99.90
12223;DHT22;6174;49.058;8.524;2022-10-16T06:37:44;15.90;99.90
12223;DHT22;6174;49.058;8.524;2022-10-16T06:40:11;16.00;99.90
12223;DHT22;6174;49.058;8.524;2022-10-16T06:42:39;16.00;99.90
12223;DHT22;6174;49.058;8.524;2022-10-16T06:45:08;16.10;99.90
12223;DHT22;6174;49.058;8.524;2022-10-16T06:47:35;16.10;99.90
12223;DHT22;6174;49.058;8.524;2022-10-16T06:50:02;16.10;99.90
12223;DHT22;6174;49.058;8.524;2022-10-16T06:52:29;16.10;99.90
12223;DHT22;6174;49.058;8.524;2022-10-16T06:54:56;16.20;99.90
12223;DHT22;6174;49.058;8.524;2022-10-16T06:57:22;16.20;99.90
12223;DHT22;6174;49.058;8.524;2022-10-16T06:59:52;16.20;99.90
12223;DHT22;6174;49.058;8.524;2022-10-16T07:02:20;16.20;99.90
12223;DHT22;6174;49.058;8.524;2022-10-16T07:04:47;16.20;99.90
12223;DHT22;6174;49.058;8.524;2022-10-16T07:07:14;16.20;99.90
12223;DHT22;6174;49.058;8.524;2022-10-16T07:09:41;16.30;99.90
12223;DHT22;6174;49.058;8.524;2022-10-16T07:12:07;16.30;99.90
12223;DHT22;6174;49.058;8.524;2022-10-16T07:14:34;16.30;99.90
12223;DHT22;6174;49.058;8.524;2022-10-16T07:17:01;16.40;99.90
12223;DHT22;6174;49.058;8.524;2022-10-16T07:19:29;16.50;99.90
12223;DHT22;6174;49.058;8.524;2022-10-16T07:21:56;16.50;99.90
12223;DHT22;6174;49.058;8.524;2022-10-16T07:24:23;16.70;99.90
12223;DHT22;6174;49.058;8.524;2022-10-16T07:26:50;16.80;99.90
12223;DHT22;6174;49.058;8.524;2022-10-16T07:29:18;16.80;99.90
12223;DHT22;6174;49.058;8.524;2022-10-16T07:31:46;16.90;99.90
12223;DHT22;6174;49.058;8.524;2022-10-16T07:34:14;16.90;99.90
12223;DHT22;6174;49.058;8.524;2022-10-16T07:36:43;16.80;99.90
12223;DHT22;6174;49.058;8.524;2022-10-16T07:39:09;16.70;99.90
12223;DHT22;6174;49.058;8.524;2022-10-16T07:41:36;16.80;99.90
12223;DHT22;6174;49.058;8.524;2022-10-16T07:44:03;16.70;99.90
12223;DHT22;6174;49.058;8.524;2022-10-16T07:46:31;16.80;99.90
12223;DHT22;6174;49.058;8.524;2022-10-16T07:48:59;16.80;99.90
12223;DHT22;6174;49.058;8.524;2022-10-16T07:51:27;16.80;99.90
12223;DHT22;6174;49.058;8.524;2022-10-16T07:53:55;16.90;99.90
12223;DHT22;6174;49.058;8.524;2022-10-16T07:56:22;17.00;99.90
12223;DHT22;6174;49.058;8.524;2022-10-16T07:58:50;17.00;99.90
12223;DHT22;6174;49.058;8.524;2022-10-16T08:01:17;17.00;99.90
12223;DHT22;6174;49.058;8.524;2022-10-16T08:03:45;17.10;99.90
12223;DHT22;6174;49.058;8.524;2022-10-16T08:06:12;17.10;99.90
12223;DHT22;6174;49.058;8.524;2022-10-16T08:08:39;17.10;99.90
12223;DHT22;6174;49.058;8.524;2022-10-16T08:11:07;17.10;99.90
12223;DHT22;6174;49.058;8.524;2022-10-16T08:13:34;17.10;99.90
12223;DHT22;6174;49.058;8.524;2022-10-16T08:16:01;17.20;99.90
12223;DHT22;6174;49.058;8.524;2022-10-16T08:18:33;17.30;99.90
12223;DHT22;6174;49.058;8.524;2022-10-16T08:21:00;17.40;99.90
12223;DHT22;6174;49.058;8.524;2022-10-16T08:23:27;17.50;99.90
12223;DHT22;6174;49.058;8.524;2022-10-16T08:25:54;17.50;99.90
12223;DHT22;6174;49.058;8.524;2022-10-16T08:28:23;17.70;99.90
12223;DHT22;6174;49.058;8.524;2022-10-16T08:30:49;17.80;99.90
12223;DHT22;6174;49.058;8.524;2022-10-16T08:33:16;17.90;99.90
12223;DHT22;6174;49.058;8.524;2022-10-16T08:35:50;17.80;99.90
12223;DHT22;6174;49.058;8.524;2022-10-16T08:38:17;17.80;99.90
12223;DHT22;6174;49.058;8.524;2022-10-16T08:40:43;17.90;99.90
12223;DHT22;6174;49.058;8.524;2022-10-16T08:43:27;17.80;99.90
12223;DHT22;6174;49.058;8.524;2022-10-16T08:46:19;17.80;99.90
12223;DHT22;6174;49.058;8.524;2022-10-16T08:48:50;17.80;99.90
12223;DHT22;6174;49.058;8.524;2022-10-16T08:51:21;17.80;99.90
12223;DHT22;6174;49.058;8.524;2022-10-16T08:53:52;17.90;99.90
12223;DHT22;6174;49.058;8.524;2022-10-16T08:56:20;17.90;99.90
12223;DHT22;6174;49.058;8.524;2022-10-16T08:58:49;17.90;99.90
12223;DHT22;6174;49.058;8.524;2022-10-16T09:01:18;17.90;99.90
12223;DHT22;6174;49.058;8.524;2022-10-16T09:04:02;17.80;99.90
12223;DHT22;6174;49.058;8.524;2022-10-16T09:06:42;17.90;99.90
12223;DHT22;6174;49.058;8.524;2022-10-16T09:09:34;18.00;99.90
12223;DHT22;6174;49.058;8.524;2022-10-16T09:12:08;18.10;99.90
12223;DHT22;6174;49.058;8.524;2022-10-16T09:14:48;18.30;99.90
12223;DHT22;6174;49.058;8.524;2022-10-16T09:17:30;18.40;99.90
12223;DHT22;6174;49.058;8.524;2022-10-16T09:20:13;18.30;99.90
12223;DHT22;6174;49.058;8.524;2022-10-16T09:22:43;18.30;99.90
12223;DHT22;6174;49.058;8.524;2022-10-16T09:25:12;18.30;99.90
12223;DHT22;6174;49.058;8.524;2022-10-16T09:27:40;18.30;99.90
12223;DHT22;6174;49.058;8.524;2022-10-16T09:30:14;18.20;99.90
12223;DHT22;6174;49.058;8.524;2022-10-16T09:32:42;18.10;99.90
12223;DHT22;6174;49.058;8.524;2022-10-16T09:35:14;18.10;99.90
12223;DHT22;6174;49.058;8.524;2022-10-16T09:37:43;18.10;99.90
12223;DHT22;6174;49.058;8.524;2022-10-16T09:40:25;18.20;99.90
12223;DHT22;6174;49.058;8.524;2022-10-16T09:42:58;18.20;99.90
12223;DHT22;6174;49.058;8.524;2022-10-16T09:45:29;18.20;99.90
12223;DHT22;6174;49.058;8.524;2022-10-16T09:48:00;18.20;99.90
12223;DHT22;6174;49.058;8.524;2022-10-16T09:50:28;18.20;99.90
12223;DHT22;6174;49.058;8.524;2022-10-16T09:53:06;18.30;99.90
12223;DHT22;6174;49.058;8.524;2022-10-16T09:55:35;18.30;99.90
12223;DHT22;6174;49.058;8.524;2022-10-16T09:58:02;18.30;99.90
12223;DHT22;6174;49.058;8.524;2022-10-16T10:00:30;18.40;99.90
12223;DHT22;6174;49.058;8.524;2022-10-16T10:02:57;18.60;99.90
12223;DHT22;6174;49.058;8.524;2022-10-16T10:05:26;18.70;99.90
12223;DHT22;6174;49.058;8.524;2022-10-16T10:07:55;18.70;99.90
12223;DHT22;6174;49.058;8.524;2022-10-16T10:10:24;18.60;99.90
12223;DHT22;6174;49.058;8.524;2022-10-16T10:12:52;18.70;99.90
12223;DHT22;6174;49.058;8.524;2022-10-16T10:15:19;19.00;99.90
12223;DHT22;6174;49.058;8.524;2022-10-16T10:17:50;19.10;99.90
12223;DHT22;6174;49.058;8.524;2022-10-16T10:20:25;19.30;99.90
12223;DHT22;6174;49.058;8.524;2022-10-16T10:22:53;19.50;99.90
12223;DHT22;6174;49.058;8.524;2022-10-16T10:25:39;19.50;99.90
12223;DHT22;6174;49.058;8.524;2022-10-16T10:28:21;19.60;99.90
12223;DHT22;6174;49.058;8.524;2022-10-16T10:30:56;19.60;99.90
12223;DHT22;6174;49.058;8.524;2022-10-16T10:33:31;19.60;99.90
12223;DHT22;6174;49.058;8.524;2022-10-16T10:36:12;19.60;99.90
12223;DHT22;6174;49.058;8.524;2022-10-16T10:38:47;19.50;99.90
12223;DHT22;6174;49.058;8.524;2022-10-16T10:41:55;19.50;99.90
12223;DHT22;6174;49.058;8.524;2022-10-16T10:44:41;19.60;99.90
12223;DHT22;6174;49.058;8.524;2022-10-16T10:47:19;19.80;99.90
12223;DHT22;6174;49.058;8.524;2022-10-16T10:50:00;19.80;99.90
12223;DHT22;6174;49.058;8.524;2022-10-16T10:52:38;19.90;99.90
12223;DHT22;6174;49.058;8.524;2022-10-16T10:55:13;19.80;99.90
12223;DHT22;6174;49.058;8.524;2022-10-16T10:58:01;19.70;99.90
12223;DHT22;6174;49.058;8.524;2022-10-16T11:00:40;19.60;99.90
12223;DHT22;6174;49.058;8.524;2022-10-16T11:03:19;19.50;99.90
12223;DHT22;6174;49.058;8.524;2022-10-16T11:05:54;19.50;99.90
12223;DHT22;6174;49.058;8.524;2022-10-16T11:08:27;19.50;99.90
12223;DHT22;6174;49.058;8.524;2022-10-16T11:10:58;19.50;99.90
12223;DHT22;6174;49.058;8.524;2022-10-16T11:13:31;19.40;99.90
12223;DHT22;6174;49.058;8.524;2022-10-16T11:16:03;19.50;99.90
12223;DHT22;6174;49.058;8.524;2022-10-16T11:18:47;19.50;99.90
12223;DHT22;6174;49.058;8.524;2022-10-16T11:21:19;19.60;99.90
12223;DHT22;6174;49.058;8.524;2022-10-16T11:23:53;19.60;99.90
12223;DHT22;6174;49.058;8.524;2022-10-16T11:26:24;19.70;99.90
12223;DHT22;6174;49.058;8.524;2022-10-16T11:28:54;19.80;99.90
12223;DHT22;6174;49.058;8.524;2022-10-16T11:31:27;19.90;99.90
12223;DHT22;6174;49.058;8.524;2022-10-16T11:34:01;19.90;99.90
12223;DHT22;6174;49.058;8.524;2022-10-16T11:36:35;20.10;99.90
12223;DHT22;6174;49.058;8.524;2022-10-16T11:39:11;20.30;99.90
12223;DHT22;6174;49.058;8.524;2022-10-16T11:41:45;20.40;99.90
12223;DHT22;6174;49.058;8.524;2022-10-16T11:44:23;20.40;99.90
12223;DHT22;6174;49.058;8.524;2022-10-16T11:46:58;20.40;99.90
12223;DHT22;6174;49.058;8.524;2022-10-16T11:49:31;20.50;99.90
12223;DHT22;6174;49.058;8.524;2022-10-16T11:52:07;20.60;99.90
12223;DHT22;6174;49.058;8.524;2022-10-16T11:54:41;20.60;99.90
12223;DHT22;6174;49.058;8.524;2022-10-16T11:57:13;20.50;99.90
12223;DHT22;6174;49.058;8.524;2022-10-16T11:59:45;20.60;99.90
12223;DHT22;6174;49.058;8.524;2022-10-16T12:02:30;20.50;99.90
12223;DHT22;6174;49.058;8.524;2022-10-16T12:05:09;20.60;99.90
12223;DHT22;6174;49.058;8.524;2022-10-16T12:07:46;20.60;99.90
12223;DHT22;6174;49.058;8.524;2022-10-16T12:10:23;20.70;99.90
12223;DHT22;6174;49.058;8.524;2022-10-16T12:12:51;20.60;99.90
12223;DHT22;6174;49.058;8.524;2022-10-16T12:15:21;20.60;99.90
12223;DHT22;6174;49.058;8.524;2022-10-16T12:17:49;20.60;99.90
12223;DHT22;6174;49.058;8.524;2022-10-16T12:20:22;20.70;99.90
12223;DHT22;6174;49.058;8.524;2022-10-16T12:22:54;20.70;99.90
12223;DHT22;6174;49.058;8.524;2022-10-16T12:25:24;20.70;99.90
12223;DHT22;6174;49.058;8.524;2022-10-16T12:27:59;20.70;99.90
12223;DHT22;6174;49.058;8.524;2022-10-16T12:30:28;20.70;99.90
12223;DHT22;6174;49.058;8.524;2022-10-16T12:32:57;20.80;99.90
12223;DHT22;6174;49.058;8.524;2022-10-16T12:35:27;20.80;99.90
12223;DHT22;6174;49.058;8.524;2022-10-16T12:38:08;20.80;99.90
12223;DHT22;6174;49.058;8.524;2022-10-16T12:40:42;20.80;99.90
12223;DHT22;6174;49.058;8.524;2022-10-16T12:43:26;20.90;99.90
12223;DHT22;6174;49.058;8.524;2022-10-16T12:46:02;20.80;99.90
12223;DHT22;6174;49.058;8.524;2022-10-16T12:48:29;20.80;99.90
12223;DHT22;6174;49.058;8.524;2022-10-16T12:50:56;20.80;99.90
12223;DHT22;6174;49.058;8.524;2022-10-16T12:53:26;20.70;99.90
12223;DHT22;6174;49.058;8.524;2022-10-16T12:56:04;20.70;99.90
12223;DHT22;6174;49.058;8.524;2022-10-16T12:58:42;20.70;99.90
12223;DHT22;6174;49.058;8.524;2022-10-16T13:01:20;20.70;99.90
12223;DHT22;6174;49.058;8.524;2022-10-16T13:04:00;20.70;99.90
12223;DHT22;6174;49.058;8.524;2022-10-16T13:06:37;20.60;99.90
12223;DHT22;6174;49.058;8.524;2022-10-16T13:09:19;20.70;99.90
12223;DHT22;6174;49.058;8.524;2022-10-16T13:12:12;20.70;99.90
12223;DHT22;6174;49.058;8.524;2022-10-16T13:15:06;20.70;99.90
12223;DHT22;6174;49.058;8.524;2022-10-16T13:17:41;20.70;99.90
12223;DHT22;6174;49.058;8.524;2022-10-16T13:20:18;20.70;99.90
12223;DHT22;6174;49.058;8.524;2022-10-16T13:22:53;20.60;99.90
12223;DHT22;6174;49.058;8.524;2022-10-16T13:25:30;20.50;99.90
12223;DHT22;6174;49.058;8.524;2022-10-16T13:28:01;20.50;99.90
12223;DHT22;6174;49.058;8.524;2022-10-16T13:30:30;20.40;99.90
12223;DHT22;6174;49.058;8.524;2022-10-16T13:33:00;20.40;99.90
12223;DHT22;6174;49.058;8.524;2022-10-16T13:35:29;20.30;99.90
12223;DHT22;6174;49.058;8.524;2022-10-16T13:38:13;20.30;99.90
12223;DHT22;6174;49.058;8.524;2022-10-16T13:40:53;20.20;99.90
12223;DHT22;6174;49.058;8.524;2022-10-16T13:43:27;20.20;99.90
12223;DHT22;6174;49.058;8.524;2022-10-16T13:45:59;20.30;99.90
12223;DHT22;6174;49.058;8.524;2022-10-16T13:48:27;20.40;99.90
12223;DHT22;6174;49.058;8.524;2022-10-16T13:51:02;20.40;99.90
12223;DHT22;6174;49.058;8.524;2022-10-16T13:53:31;20.50;99.90
12223;DHT22;6174;49.058;8.524;2022-10-16T13:56:00;20.50;99.90
12223;DHT22;6174;49.058;8.524;2022-10-16T13:58:28;20.60;99.90
12223;DHT22;6174;49.058;8.524;2022-10-16T14:00:56;20.60;99.90
12223;DHT22;6174;49.058;8.524;2022-10-16T14:03:24;20.50;99.90
12223;DHT22;6174;49.058;8.524;2022-10-16T14:05:53;20.60;99.90
12223;DHT22;6174;49.058;8.524;2022-10-16T14:08:22;20.70;99.90
12223;DHT22;6174;49.058;8.524;2022-10-16T14:10:51;20.70;99.90
12223;DHT22;6174;49.058;8.524;2022-10-16T14:13:26;20.70;99.90
12223;DHT22;6174;49.058;8.524;2022-10-16T14:15:53;20.70;99.90
12223;DHT22;6174;49.058;8.524;2022-10-16T14:18:25;20.60;99.90
12223;DHT22;6174;49.058;8.524;2022-10-16T14:20:53;20.50;99.90
12223;DHT22;6174;49.058;8.524;2022-10-16T14:23:23;20.50;99.90
12223;DHT22;6174;49.058;8.524;2022-10-16T14:25:51;20.50;99.90
12223;DHT22;6174;49.058;8.524;2022-10-16T14:28:22;20.40;99.90
12223;DHT22;6174;49.058;8.524;2022-10-16T14:30:51;20.60;99.90
12223;DHT22;6174;49.058;8.524;2022-10-16T14:33:23;20.60;99.90
12223;DHT22;6174;49.058;8.524;2022-10-16T14:36:02;20.60;99.90
12223;DHT22;6174;49.058;8.524;2022-10-16T14:38:29;20.50;99.90
12223;DHT22;6174;49.058;8.524;2022-10-16T14:40:57;20.40;99.90
12223;DHT22;6174;49.058;8.524;2022-10-16T14:43:32;20.40;99.90
12223;DHT22;6174;49.058;8.524;2022-10-16T14:46:02;20.60;99.90
12223;DHT22;6174;49.058;8.524;2022-10-16T14:48:29;20.60;99.90
12223;DHT22;6174;49.058;8.524;2022-10-16T14:50:56;20.70;99.90
12223;DHT22;6174;49.058;8.524;2022-10-16T14:53:23;20.80;99.90
12223;DHT22;6174;49.058;8.524;2022-10-16T14:55:49;20.80;99.90
12223;DHT22;6174;49.058;8.524;2022-10-16T14:58:19;20.90;99.90
12223;DHT22;6174;49.058;8.524;2022-10-16T15:00:48;21.00;99.90
12223;DHT22;6174;49.058;8.524;2022-10-16T15:03:15;21.10;99.90
12223;DHT22;6174;49.058;8.524;2022-10-16T15:05:41;21.10;99.90
12223;DHT22;6174;49.058;8.524;2022-10-16T15:08:10;21.10;99.90
12223;DHT22;6174;49.058;8.524;2022-10-16T15:10:40;21.10;99.90
12223;DHT22;6174;49.058;8.524;2022-10-16T15:13:11;21.10;99.90
12223;DHT22;6174;49.058;8.524;2022-10-16T15:15:41;21.10;99.90
12223;DHT22;6174;49.058;8.524;2022-10-16T15:18:10;21.10;99.90
12223;DHT22;6174;49.058;8.524;2022-10-16T15:20:38;20.90;99.90
12223;DHT22;6174;49.058;8.524;2022-10-16T15:23:09;20.80;99.90
12223;DHT22;6174;49.058;8.524;2022-10-16T15:25:39;20.90;99.90
12223;DHT22;6174;49.058;8.524;2022-10-16T15:28:08;20.80;99.90
12223;DHT22;6174;49.058;8.524;2022-10-16T15:30:36;20.80;99.90
12223;DHT22;6174;49.058;8.524;2022-10-16T15:33:05;20.70;99.90
12223;DHT22;6174;49.058;8.524;2022-10-16T15:35:33;20.60;99.90
12223;DHT22;6174;49.058;8.524;2022-10-16T15:37:59;20.70;99.90
12223;DHT22;6174;49.058;8.524;2022-10-16T15:40:26;20.70;99.90
12223;DHT22;6174;49.058;8.524;2022-10-16T15:42:53;20.80;99.90
12223;DHT22;6174;49.058;8.524;2022-10-16T15:45:20;20.80;99.90
12223;DHT22;6174;49.058;8.524;2022-10-16T15:47:47;20.80;99.90
12223;DHT22;6174;49.058;8.524;2022-10-16T15:50:15;20.90;99.90
12223;DHT22;6174;49.058;8.524;2022-10-16T15:52:43;20.70;99.90
12223;DHT22;6174;49.058;8.524;2022-10-16T15:55:11;20.70;99.90
12223;DHT22;6174;49.058;8.524;2022-10-16T15:57:38;20.70;99.90
12223;DHT22;6174;49.058;8.524;2022-10-16T16:00:07;20.60;99.90
12223;DHT22;6174;49.058;8.524;2022-10-16T16:02:35;20.40;99.90
12223;DHT22;6174;49.058;8.524;2022-10-16T16:05:02;20.30;99.90
12223;DHT22;6174;49.058;8.524;2022-10-16T16:07:29;20.20;99.90
12223;DHT22;6174;49.058;8.524;2022-10-16T16:09:59;20.10;99.90
12223;DHT22;6174;49.058;8.524;2022-10-16T16:12:26;20.10;99.90
12223;DHT22;6174;49.058;8.524;2022-10-16T16:14:53;19.90;99.90
12223;DHT22;6174;49.058;8.524;2022-10-16T16:17:20;19.90;99.90
12223;DHT22;6174;49.058;8.524;2022-10-16T16:19:46;19.80;99.90
12223;DHT22;6174;49.058;8.524;2022-10-16T16:22:13;19.80;99.90
12223;DHT22;6174;49.058;8.524;2022-10-16T16:24:40;19.70;99.90
12223;DHT22;6174;49.058;8.524;2022-10-16T16:27:08;19.60;99.90
12223;DHT22;6174;49.058;8.524;2022-10-16T16:29:35;19.60;99.90
12223;DHT22;6174;49.058;8.524;2022-10-16T16:32:02;19.50;99.90
12223;DHT22;6174;49.058;8.524;2022-10-16T16:34:29;19.40;99.90
12223;DHT22;6174;49.058;8.524;2022-10-16T16:36:56;19.40;99.90
12223;DHT22;6174;49.058;8.524;2022-10-16T16:39:23;19.40;99.90
12223;DHT22;6174;49.058;8.524;2022-10-16T16:41:50;19.30;99.90
12223;DHT22;6174;49.058;8.524;2022-10-16T16:44:18;19.30;99.90
12223;DHT22;6174;49.058;8.524;2022-10-16T16:46:45;19.30;99.90
12223;DHT22;6174;49.058;8.524;2022-10-16T16:49:13;19.20;99.90
12223;DHT22;6174;49.058;8.524;2022-10-16T16:51:40;19.10;99.90
12223;DHT22;6174;49.058;8.524;2022-10-16T16:54:08;19.00;99.90
12223;DHT22;6174;49.058;8.524;2022-10-16T16:56:37;18.90;99.90
12223;DHT22;6174;49.058;8.524;2022-10-16T16:59:04;18.80;99.90
12223;DHT22;6174;49.058;8.524;2022-10-16T17:01:32;18.70;99.90
12223;DHT22;6174;49.058;8.524;2022-10-16T17:03:58;18.70;99.90
12223;DHT22;6174;49.058;8.524;2022-10-16T17:06:28;18.60;99.90
12223;DHT22;6174;49.058;8.524;2022-10-16T17:08:56;18.60;99.90
12223;DHT22;6174;49.058;8.524;2022-10-16T17:11:24;18.40;99.90
12223;DHT22;6174;49.058;8.524;2022-10-16T17:13:52;18.40;99.90
12223;DHT22;6174;49.058;8.524;2022-10-16T17:16:20;18.30;99.90
12223;DHT22;6174;49.058;8.524;2022-10-16T17:18:48;18.30;99.90
12223;DHT22;6174;49.058;8.524;2022-10-16T17:21:15;18.30;99.90
12223;DHT22;6174;49.058;8.524;2022-10-16T17:23:42;18.20;99.90
12223;DHT22;6174;49.058;8.524;2022-10-16T17:26:11;18.10;99.90
12223;DHT22;6174;49.058;8.524;2022-10-16T17:28:38;18.10;99.90
12223;DHT22;6174;49.058;8.524;2022-10-16T17:31:10;18.30;99.90
12223;DHT22;6174;49.058;8.524;2022-10-16T17:33:37;18.40;99.90
12223;DHT22;6174;49.058;8.524;2022-10-16T17:36:06;18.40;99.90
12223;DHT22;6174;49.058;8.524;2022-10-16T17:38:34;18.40;99.90
12223;DHT22;6174;49.058;8.524;2022-10-16T17:41:09;18.30;99.90
12223;DHT22;6174;49.058;8.524;2022-10-16T17:43:37;18.30;99.90
12223;DHT22;6174;49.058;8.524;2022-10-16T17:46:05;18.30;99.90
12223;DHT22;6174;49.058;8.524;2022-10-16T17:48:36;18.40;99.90
12223;DHT22;6174;49.058;8.524;2022-10-16T17:51:04;18.40;99.90
12223;DHT22;6174;49.058;8.524;2022-10-16T17:53:32;18.40;99.90
12223;DHT22;6174;49.058;8.524;2022-10-16T17:56:02;18.40;99.90
12223;DHT22;6174;49.058;8.524;2022-10-16T17:58:29;18.30;99.90
12223;DHT22;6174;49.058;8.524;2022-10-16T18:00:56;18.20;99.90
12223;DHT22;6174;49.058;8.524;2022-10-16T18:03:23;18.30;99.90
12223;DHT22;6174;49.058;8.524;2022-10-16T18:05:51;18.30;99.90
12223;DHT22;6174;49.058;8.524;2022-10-16T18:08:18;18.30;99.90
12223;DHT22;6174;49.058;8.524;2022-10-16T18:10:46;18.20;99.90
12223;DHT22;6174;49.058;8.524;2022-10-16T18:13:13;18.20;99.90
12223;DHT22;6174;49.058;8.524;2022-10-16T18:15:42;18.20;99.90
12223;DHT22;6174;49.058;8.524;2022-10-16T18:18:08;18.20;99.90
12223;DHT22;6174;49.058;8.524;2022-10-16T18:20:35;18.10;99.90
12223;DHT22;6174;49.058;8.524;2022-10-16T18:23:02;18.10;99.90
12223;DHT22;6174;49.058;8.524;2022-10-16T18:25:29;18.10;99.90
12223;DHT22;6174;49.058;8.524;2022-10-16T18:27:57;18.10;99.90
12223;DHT22;6174;49.058;8.524;2022-10-16T18:30:24;18.10;99.90
12223;DHT22;6174;49.058;8.524;2022-10-16T18:32:50;18.00;99.90
12223;DHT22;6174;49.058;8.524;2022-10-16T18:35:18;17.90;99.90
12223;DHT22;6174;49.058;8.524;2022-10-16T18:37:44;17.90;99.90
12223;DHT22;6174;49.058;8.524;2022-10-16T18:40:11;18.10;99.90
12223;DHT22;6174;49.058;8.524;2022-10-16T18:42:38;18.20;99.90
12223;DHT22;6174;49.058;8.524;2022-10-16T18:45:07;18.20;99.90
12223;DHT22;6174;49.058;8.524;2022-10-16T18:47:34;18.20;99.90
12223;DHT22;6174;49.058;8.524;2022-10-16T18:50:01;18.20;99.90
12223;DHT22;6174;49.058;8.524;2022-10-16T18:52:28;18.20;99.90
12223;DHT22;6174;49.058;8.524;2022-10-16T18:54:55;18.20;99.90
12223;DHT22;6174;49.058;8.524;2022-10-16T18:57:23;18.10;99.90
12223;DHT22;6174;49.058;8.524;2022-10-16T18:59:50;18.10;99.90
12223;DHT22;6174;49.058;8.524;2022-10-16T19:02:18;17.90;99.90
12223;DHT22;6174;49.058;8.524;2022-10-16T19:04:45;17.80;99.90
12223;DHT22;6174;49.058;8.524;2022-10-16T19:07:13;17.70;99.90
12223;DHT22;6174;49.058;8.524;2022-10-16T19:09:41;17.60;99.90
12223;DHT22;6174;49.058;8.524;2022-10-16T19:12:07;17.50;99.90
12223;DHT22;6174;49.058;8.524;2022-10-16T19:14:34;17.40;99.90
12223;DHT22;6174;49.058;8.524;2022-10-16T19:17:02;17.40;99.90
12223;DHT22;6174;49.058;8.524;2022-10-16T19:19:30;17.40;99.90
12223;DHT22;6174;49.058;8.524;2022-10-16T19:21:57;17.30;99.90
12223;DHT22;6174;49.058;8.524;2022-10-16T19:24:36;17.30;99.90
12223;DHT22;6174;49.058;8.524;2022-10-16T19:27:03;17.30;99.90
12223;DHT22;6174;49.058;8.524;2022-10-16T19:29:30;17.30;99.90
12223;DHT22;6174;49.058;8.524;2022-10-16T19:31:57;17.20;99.90
12223;DHT22;6174;49.058;8.524;2022-10-16T19:34:26;17.20;99.90
12223;DHT22;6174;49.058;8.524;2022-10-16T19:36:54;17.30;99.90
12223;DHT22;6174;49.058;8.524;2022-10-16T19:39:21;17.30;99.90
12223;DHT22;6174;49.058;8.524;2022-10-16T19:41:49;17.30;99.90
12223;DHT22;6174;49.058;8.524;2022-10-16T19:44:17;17.20;99.90
12223;DHT22;6174;49.058;8.524;2022-10-16T19:46:45;17.20;99.90
12223;DHT22;6174;49.058;8.524;2022-10-16T19:49:14;17.20;99.90
12223;DHT22;6174;49.058;8.524;2022-10-16T19:51:45;17.10;99.90
12223;DHT22;6174;49.058;8.524;2022-10-16T19:54:13;17.10;99.90
12223;DHT22;6174;49.058;8.524;2022-10-16T19:56:41;17.10;99.90
12223;DHT22;6174;49.058;8.524;2022-10-16T19:59:09;17.10;99.90
12223;DHT22;6174;49.058;8.524;2022-10-16T20:01:37;17.00;99.90
12223;DHT22;6174;49.058;8.524;2022-10-16T20:04:04;17.00;99.90
12223;DHT22;6174;49.058;8.524;2022-10-16T20:06:31;17.00;99.90
12223;DHT22;6174;49.058;8.524;2022-10-16T20:08:57;17.00;99.90
12223;DHT22;6174;49.058;8.524;2022-10-16T20:11:27;17.00;99.90
12223;DHT22;6174;49.058;8.524;2022-10-16T20:13:54;17.00;99.90
12223;DHT22;6174;49.058;8.524;2022-10-16T20:16:22;17.00;99.90
12223;DHT22;6174;49.058;8.524;2022-10-16T20:18:50;17.00;99.90
12223;DHT22;6174;49.058;8.524;2022-10-16T20:21:19;17.00;99.90
12223;DHT22;6174;49.058;8.524;2022-10-16T20:23:46;17.00;99.90
12223;DHT22;6174;49.058;8.524;2022-10-16T20:26:15;17.00;99.90
12223;DHT22;6174;49.058;8.524;2022-10-16T20:28:43;17.10;99.90
12223;DHT22;6174;49.058;8.524;2022-10-16T20:31:13;17.20;99.90
12223;DHT22;6174;49.058;8.524;2022-10-16T20:33:40;17.30;99.90
12223;DHT22;6174;49.058;8.524;2022-10-16T20:36:10;17.30;99.90
12223;DHT22;6174;49.058;8.524;2022-10-16T20:38:37;17.30;99.90
12223;DHT22;6174;49.058;8.524;2022-10-16T20:41:04;17.40;99.90
12223;DHT22;6174;49.058;8.524;2022-10-16T20:43:31;17.30;99.90
12223;DHT22;6174;49.058;8.524;2022-10-16T20:46:01;17.30;99.90
12223;DHT22;6174;49.058;8.524;2022-10-16T20:48:28;17.30;99.90
12223;DHT22;6174;49.058;8.524;2022-10-16T20:50:55;17.30;99.90
12223;DHT22;6174;49.058;8.524;2022-10-16T20:53:24;17.30;99.90
12223;DHT22;6174;49.058;8.524;2022-10-16T20:55:50;17.40;99.90
12223;DHT22;6174;49.058;8.524;2022-10-16T20:58:17;17.30;99.90
12223;DHT22;6174;49.058;8.524;2022-10-16T21:00:44;17.30;99.90
12223;DHT22;6174;49.058;8.524;2022-10-16T21:03:12;17.40;99.90
12223;DHT22;6174;49.058;8.524;2022-10-16T21:05:40;17.50;99.90
12223;DHT22;6174;49.058;8.524;2022-10-16T21:08:07;17.30;99.90
12223;DHT22;6174;49.058;8.524;2022-10-16T21:10:34;17.30;99.90
12223;DHT22;6174;49.058;8.524;2022-10-16T21:13:00;17.30;99.90
12223;DHT22;6174;49.058;8.524;2022-10-16T21:15:28;17.30;99.90
12223;DHT22;6174;49.058;8.524;2022-10-16T21:17:54;17.30;99.90
12223;DHT22;6174;49.058;8.524;2022-10-16T21:20:22;17.30;99.90
12223;DHT22;6174;49.058;8.524;2022-10-16T21:22:49;17.30;99.90